sensor_id;sensor_type;location;lat;lon;timestamp;P1;durP1;ratioP1;P2;durP2;ratioP2
3967;SDS011;9221;42.646;23.380;2022-09-28T00:00:49;6.00;;;2.03;;
3967;SDS011;9221;42.646;23.380;2022-09-28T00:03:14;2.17;;;1.63;;
3967;SDS011;9221;42.646;23.380;2022-09-28T00:05:40;4.73;;;1.70;;
3967;SDS011;9221;42.646;23.380;2022-09-28T00:08:05;3.97;;;2.10;;
3967;SDS011;9221;42.646;23.380;2022-09-28T00:10:30;4.33;;;2.27;;
3967;SDS011;9221;42.646;23.380;2022-09-28T00:12:57;8.90;;;2.00;;
3967;SDS011;9221;42.646;23.380;2022-09-28T00:15:24;4.40;;;2.10;;
3967;SDS011;9221;42.646;23.380;2022-09-28T00:17:50;2.33;;;1.60;;
3967;SDS011;9221;42.646;23.380;2022-09-28T00:20:15;8.47;;;1.90;;
3967;SDS011;9221;42.646;23.380;2022-09-28T00:22:42;1.93;;;1.77;;
3967;SDS011;9221;42.646;23.380;2022-09-28T00:25:07;3.03;;;2.00;;
3967;SDS011;9221;42.646;23.380;2022-09-28T00:27:33;4.00;;;1.90;;
3967;SDS011;9221;42.646;23.380;2022-09-28T00:29:58;10.53;;;2.83;;
3967;SDS011;9221;42.646;23.380;2022-09-28T00:32:24;5.70;;;2.70;;
3967;SDS011;9221;42.646;23.380;2022-09-28T00:34:50;4.73;;;2.50;;
3967;SDS011;9221;42.646;23.380;2022-09-28T00:37:17;5.50;;;2.23;;
3967;SDS011;9221;42.646;23.380;2022-09-28T00:39:43;4.03;;;2.33;;
3967;SDS011;9221;42.646;23.380;2022-09-28T00:42:14;7.77;;;2.70;;
3967;SDS011;9221;42.646;23.380;2022-09-28T00:50:11;5.60;;;2.43;;
3967;SDS011;9221;42.646;23.380;2022-09-28T00:55:16;4.27;;;1.87;;
3967;SDS011;9221;42.646;23.380;2022-09-28T00:57:47;4.87;;;2.20;;
3967;SDS011;9221;42.646;23.380;2022-09-28T01:00:17;3.23;;;2.03;;
3967;SDS011;9221;42.646;23.380;2022-09-28T01:02:43;6.33;;;2.40;;
3967;SDS011;9221;42.646;23.380;2022-09-28T01:05:10;7.50;;;2.50;;
3967;SDS011;9221;42.646;23.380;2022-09-28T01:07:37;6.47;;;2.60;;
3967;SDS011;9221;42.646;23.380;2022-09-28T01:10:04;8.67;;;2.50;;
3967;SDS011;9221;42.646;23.380;2022-09-28T01:12:31;3.93;;;2.00;;
3967;SDS011;9221;42.646;23.380;2022-09-28T01:14:57;4.27;;;1.97;;
3967;SDS011;9221;42.646;23.380;2022-09-28T01:17:25;9.87;;;2.70;;
3967;SDS011;9221;42.646;23.380;2022-09-28T01:20:05;2.63;;;2.07;;
3967;SDS011;9221;42.646;23.380;2022-09-28T01:22:49;4.30;;;1.80;;
3967;SDS011;9221;42.646;23.380;2022-09-28T01:28:04;10.53;;;2.90;;
3967;SDS011;9221;42.646;23.380;2022-09-28T01:30:35;8.87;;;2.87;;
3967;SDS011;9221;42.646;23.380;2022-09-28T01:33:08;4.80;;;2.33;;
3967;SDS011;9221;42.646;23.380;2022-09-28T01:35:58;3.90;;;2.13;;
3967;SDS011;9221;42.646;23.380;2022-09-28T01:38:32;4.03;;;2.07;;
3967;SDS011;9221;42.646;23.380;2022-09-28T01:41:03;5.10;;;2.43;;
3967;SDS011;9221;42.646;23.380;2022-09-28T01:43:31;6.17;;;2.53;;
3967;SDS011;9221;42.646;23.380;2022-09-28T01:54:27;4.47;;;2.30;;
3967;SDS011;9221;42.646;23.380;2022-09-28T01:56:59;6.20;;;1.93;;
3967;SDS011;9221;42.646;23.380;2022-09-28T01:59:32;5.23;;;2.40;;
3967;SDS011;9221;42.646;23.380;2022-09-28T02:02:03;4.10;;;2.07;;
3967;SDS011;9221;42.646;23.380;2022-09-28T02:04:36;4.23;;;2.20;;
3967;SDS011;9221;42.646;23.380;2022-09-28T02:07:17;4.00;;;1.80;;
3967;SDS011;9221;42.646;23.380;2022-09-28T02:09:52;6.03;;;2.20;;
3967;SDS011;9221;42.646;23.380;2022-09-28T02:12:32;8.87;;;2.70;;
3967;SDS011;9221;42.646;23.380;2022-09-28T02:15:09;6.33;;;2.00;;
3967;SDS011;9221;42.646;23.380;2022-09-28T02:17:42;1.90;;;1.70;;
3967;SDS011;9221;42.646;23.380;2022-09-28T02:20:08;5.27;;;2.37;;
3967;SDS011;9221;42.646;23.380;2022-09-28T02:22:42;3.30;;;2.00;;
3967;SDS011;9221;42.646;23.380;2022-09-28T02:25:12;3.63;;;2.23;;
3967;SDS011;9221;42.646;23.380;2022-09-28T02:27:54;7.93;;;2.30;;
3967;SDS011;9221;42.646;23.380;2022-09-28T02:30:24;3.63;;;2.10;;
3967;SDS011;9221;42.646;23.380;2022-09-28T02:32:51;17.13;;;2.87;;
3967;SDS011;9221;42.646;23.380;2022-09-28T02:35:21;7.00;;;2.63;;
3967;SDS011;9221;42.646;23.380;2022-09-28T02:37:47;7.67;;;2.77;;
3967;SDS011;9221;42.646;23.380;2022-09-28T02:42:51;3.33;;;2.27;;
3967;SDS011;9221;42.646;23.380;2022-09-28T02:50:41;6.60;;;1.87;;
3967;SDS011;9221;42.646;23.380;2022-09-28T03:04:46;4.70;;;2.10;;
3967;SDS011;9221;42.646;23.380;2022-09-28T03:07:23;3.40;;;1.80;;
3967;SDS011;9221;42.646;23.380;2022-09-28T03:09:55;4.60;;;2.10;;
3967;SDS011;9221;42.646;23.380;2022-09-28T03:12:27;1.97;;;1.67;;
3967;SDS011;9221;42.646;23.380;2022-09-28T03:17:34;4.90;;;2.20;;
3967;SDS011;9221;42.646;23.380;2022-09-28T03:20:00;3.90;;;2.00;;
3967;SDS011;9221;42.646;23.380;2022-09-28T03:22:26;6.00;;;2.83;;
3967;SDS011;9221;42.646;23.380;2022-09-28T03:24:51;2.80;;;2.00;;
3967;SDS011;9221;42.646;23.380;2022-09-28T03:27:17;3.73;;;1.80;;
3967;SDS011;9221;42.646;23.380;2022-09-28T03:29:43;2.70;;;1.83;;
3967;SDS011;9221;42.646;23.380;2022-09-28T03:32:08;3.20;;;2.03;;
3967;SDS011;9221;42.646;23.380;2022-09-28T03:34:33;9.03;;;2.20;;
3967;SDS011;9221;42.646;23.380;2022-09-28T03:36:59;6.93;;;2.23;;
3967;SDS011;9221;42.646;23.380;2022-09-28T03:39:25;3.87;;;2.10;;
3967;SDS011;9221;42.646;23.380;2022-09-28T03:41:50;5.43;;;2.60;;
3967;SDS011;9221;42.646;23.380;2022-09-28T03:44:16;4.30;;;2.37;;
3967;SDS011;9221;42.646;23.380;2022-09-28T03:46:41;5.60;;;2.40;;
3967;SDS011;9221;42.646;23.380;2022-09-28T03:49:07;4.23;;;2.23;;
3967;SDS011;9221;42.646;23.380;2022-09-28T03:51:33;4.50;;;2.70;;
3967;SDS011;9221;42.646;23.380;2022-09-28T03:53:59;7.20;;;2.27;;
3967;SDS011;9221;42.646;23.380;2022-09-28T03:56:25;4.20;;;2.43;;
3967;SDS011;9221;42.646;23.380;2022-09-28T03:58:50;4.87;;;2.60;;
3967;SDS011;9221;42.646;23.380;2022-09-28T04:01:16;8.60;;;3.07;;
3967;SDS011;9221;42.646;23.380;2022-09-28T04:03:42;5.57;;;2.40;;
3967;SDS011;9221;42.646;23.380;2022-09-28T04:06:08;6.10;;;2.20;;
3967;SDS011;9221;42.646;23.380;2022-09-28T04:08:33;5.73;;;2.70;;
3967;SDS011;9221;42.646;23.380;2022-09-28T04:10:59;5.30;;;2.27;;
3967;SDS011;9221;42.646;23.380;2022-09-28T04:13:26;5.30;;;2.13;;
3967;SDS011;9221;42.646;23.380;2022-09-28T04:15:53;4.80;;;2.07;;
3967;SDS011;9221;42.646;23.380;2022-09-28T04:18:19;9.20;;;2.53;;
3967;SDS011;9221;42.646;23.380;2022-09-28T04:20:45;9.87;;;2.53;;
3967;SDS011;9221;42.646;23.380;2022-09-28T04:23:15;7.37;;;2.50;;
3967;SDS011;9221;42.646;23.380;2022-09-28T04:25:40;5.60;;;2.80;;
3967;SDS011;9221;42.646;23.380;2022-09-28T04:28:07;4.40;;;2.80;;
3967;SDS011;9221;42.646;23.380;2022-09-28T04:30:51;4.87;;;3.27;;
3967;SDS011;9221;42.646;23.380;2022-09-28T04:33:16;6.97;;;3.03;;
3967;SDS011;9221;42.646;23.380;2022-09-28T04:35:42;5.90;;;2.97;;
3967;SDS011;9221;42.646;23.380;2022-09-28T04:38:07;13.60;;;3.03;;
3967;SDS011;9221;42.646;23.380;2022-09-28T04:40:33;8.30;;;3.50;;
3967;SDS011;9221;42.646;23.380;2022-09-28T04:42:58;7.80;;;3.20;;
3967;SDS011;9221;42.646;23.380;2022-09-28T04:45:23;14.07;;;3.90;;
3967;SDS011;9221;42.646;23.380;2022-09-28T04:47:50;9.17;;;2.93;;
3967;SDS011;9221;42.646;23.380;2022-09-28T04:50:16;18.33;;;2.93;;
3967;SDS011;9221;42.646;23.380;2022-09-28T04:52:42;7.20;;;3.00;;
3967;SDS011;9221;42.646;23.380;2022-09-28T04:55:08;11.50;;;3.20;;
3967;SDS011;9221;42.646;23.380;2022-09-28T04:57:38;7.57;;;3.57;;
3967;SDS011;9221;42.646;23.380;2022-09-28T05:00:04;11.67;;;3.60;;
3967;SDS011;9221;42.646;23.380;2022-09-28T05:02:30;16.43;;;3.80;;
3967;SDS011;9221;42.646;23.380;2022-09-28T05:04:56;8.73;;;3.40;;
3967;SDS011;9221;42.646;23.380;2022-09-28T05:07:23;14.33;;;3.43;;
3967;SDS011;9221;42.646;23.380;2022-09-28T05:09:51;4.60;;;3.10;;
3967;SDS011;9221;42.646;23.380;2022-09-28T05:12:17;10.73;;;3.40;;
3967;SDS011;9221;42.646;23.380;2022-09-28T05:14:42;7.43;;;3.43;;
3967;SDS011;9221;42.646;23.380;2022-09-28T05:17:08;6.10;;;3.43;;
3967;SDS011;9221;42.646;23.380;2022-09-28T05:19:34;6.37;;;3.40;;
3967;SDS011;9221;42.646;23.380;2022-09-28T05:22:00;7.13;;;3.20;;
3967;SDS011;9221;42.646;23.380;2022-09-28T05:24:30;10.93;;;3.63;;
3967;SDS011;9221;42.646;23.380;2022-09-28T05:26:56;9.60;;;4.00;;
3967;SDS011;9221;42.646;23.380;2022-09-28T05:29:21;7.50;;;3.43;;
3967;SDS011;9221;42.646;23.380;2022-09-28T05:31:47;9.97;;;4.10;;
3967;SDS011;9221;42.646;23.380;2022-09-28T05:34:12;13.23;;;4.23;;
3967;SDS011;9221;42.646;23.380;2022-09-28T05:36:38;10.70;;;4.13;;
3967;SDS011;9221;42.646;23.380;2022-09-28T05:39:04;10.90;;;4.70;;
3967;SDS011;9221;42.646;23.380;2022-09-28T05:41:30;17.27;;;4.83;;
3967;SDS011;9221;42.646;23.380;2022-09-28T05:43:56;17.53;;;4.90;;
3967;SDS011;9221;42.646;23.380;2022-09-28T05:46:22;12.63;;;4.40;;
3967;SDS011;9221;42.646;23.380;2022-09-28T05:48:47;8.60;;;3.57;;
3967;SDS011;9221;42.646;23.380;2022-09-28T05:51:14;10.90;;;4.53;;
3967;SDS011;9221;42.646;23.380;2022-09-28T05:53:39;11.53;;;4.60;;
3967;SDS011;9221;42.646;23.380;2022-09-28T05:56:05;15.50;;;5.30;;
3967;SDS011;9221;42.646;23.380;2022-09-28T05:58:31;9.10;;;5.17;;
3967;SDS011;9221;42.646;23.380;2022-09-28T06:00:57;14.70;;;5.40;;
3967;SDS011;9221;42.646;23.380;2022-09-28T06:03:23;11.67;;;6.07;;
3967;SDS011;9221;42.646;23.380;2022-09-28T06:05:49;10.93;;;5.77;;
3967;SDS011;9221;42.646;23.380;2022-09-28T06:08:14;9.27;;;5.47;;
3967;SDS011;9221;42.646;23.380;2022-09-28T06:10:40;13.03;;;4.97;;
3967;SDS011;9221;42.646;23.380;2022-09-28T06:13:05;12.57;;;5.27;;
3967;SDS011;9221;42.646;23.380;2022-09-28T06:15:32;12.87;;;5.03;;
3967;SDS011;9221;42.646;23.380;2022-09-28T06:20:26;9.73;;;5.40;;
3967;SDS011;9221;42.646;23.380;2022-09-28T06:22:54;9.20;;;4.70;;
3967;SDS011;9221;42.646;23.380;2022-09-28T06:25:19;12.17;;;5.23;;
3967;SDS011;9221;42.646;23.380;2022-09-28T06:27:53;12.33;;;5.57;;
3967;SDS011;9221;42.646;23.380;2022-09-28T06:30:39;16.93;;;6.83;;
3967;SDS011;9221;42.646;23.380;2022-09-28T06:33:06;12.97;;;6.50;;
3967;SDS011;9221;42.646;23.380;2022-09-28T06:35:33;17.07;;;7.80;;
3967;SDS011;9221;42.646;23.380;2022-09-28T06:37:59;22.53;;;7.53;;
3967;SDS011;9221;42.646;23.380;2022-09-28T06:40:25;15.50;;;7.93;;
3967;SDS011;9221;42.646;23.380;2022-09-28T06:42:58;16.10;;;7.80;;
3967;SDS011;9221;42.646;23.380;2022-09-28T06:45:26;19.87;;;9.00;;
3967;SDS011;9221;42.646;23.380;2022-09-28T06:47:57;32.63;;;12.00;;
3967;SDS011;9221;42.646;23.380;2022-09-28T06:50:24;31.47;;;11.60;;
3967;SDS011;9221;42.646;23.380;2022-09-28T06:52:51;24.40;;;10.37;;
3967;SDS011;9221;42.646;23.380;2022-09-28T06:55:18;31.67;;;10.70;;
3967;SDS011;9221;42.646;23.380;2022-09-28T06:57:44;34.90;;;11.80;;
3967;SDS011;9221;42.646;23.380;2022-09-28T07:00:09;37.43;;;11.40;;
3967;SDS011;9221;42.646;23.380;2022-09-28T07:02:35;25.03;;;10.53;;
3967;SDS011;9221;42.646;23.380;2022-09-28T07:05:01;37.57;;;12.30;;
3967;SDS011;9221;42.646;23.380;2022-09-28T07:07:27;30.30;;;10.27;;
3967;SDS011;9221;42.646;23.380;2022-09-28T07:09:52;27.03;;;9.53;;
3967;SDS011;9221;42.646;23.380;2022-09-28T07:12:19;29.10;;;10.40;;
3967;SDS011;9221;42.646;23.380;2022-09-28T07:14:44;21.60;;;9.30;;
3967;SDS011;9221;42.646;23.380;2022-09-28T07:17:10;25.13;;;9.00;;
3967;SDS011;9221;42.646;23.380;2022-09-28T07:19:35;17.00;;;7.03;;
3967;SDS011;9221;42.646;23.380;2022-09-28T07:22:01;28.20;;;7.90;;
3967;SDS011;9221;42.646;23.380;2022-09-28T07:24:26;15.03;;;6.37;;
3967;SDS011;9221;42.646;23.380;2022-09-28T07:26:53;15.80;;;6.37;;
3967;SDS011;9221;42.646;23.380;2022-09-28T07:29:19;14.77;;;6.53;;
3967;SDS011;9221;42.646;23.380;2022-09-28T07:31:44;17.00;;;6.63;;
3967;SDS011;9221;42.646;23.380;2022-09-28T07:34:10;17.30;;;6.93;;
3967;SDS011;9221;42.646;23.380;2022-09-28T07:36:35;29.43;;;8.20;;
3967;SDS011;9221;42.646;23.380;2022-09-28T07:39:01;24.53;;;8.33;;
3967;SDS011;9221;42.646;23.380;2022-09-28T07:41:27;19.83;;;7.97;;
3967;SDS011;9221;42.646;23.380;2022-09-28T07:43:59;13.20;;;6.80;;
3967;SDS011;9221;42.646;23.380;2022-09-28T07:46:29;14.97;;;6.10;;
3967;SDS011;9221;42.646;23.380;2022-09-28T07:48:55;19.23;;;8.37;;
3967;SDS011;9221;42.646;23.380;2022-09-28T07:51:21;24.00;;;8.00;;
3967;SDS011;9221;42.646;23.380;2022-09-28T07:53:46;20.20;;;7.37;;
3967;SDS011;9221;42.646;23.380;2022-09-28T07:56:12;16.77;;;6.70;;
3967;SDS011;9221;42.646;23.380;2022-09-28T07:58:41;13.83;;;4.27;;
3967;SDS011;9221;42.646;23.380;2022-09-28T08:01:08;7.97;;;3.17;;
3967;SDS011;9221;42.646;23.380;2022-09-28T08:03:35;14.63;;;3.40;;
3967;SDS011;9221;42.646;23.380;2022-09-28T08:06:03;4.43;;;2.40;;
3967;SDS011;9221;42.646;23.380;2022-09-28T08:08:34;5.00;;;2.73;;
3967;SDS011;9221;42.646;23.380;2022-09-28T08:11:00;8.33;;;3.50;;
3967;SDS011;9221;42.646;23.380;2022-09-28T08:13:26;5.10;;;3.13;;
3967;SDS011;9221;42.646;23.380;2022-09-28T08:15:52;9.33;;;3.30;;
3967;SDS011;9221;42.646;23.380;2022-09-28T08:18:18;7.40;;;2.90;;
3967;SDS011;9221;42.646;23.380;2022-09-28T08:20:44;10.97;;;3.63;;
3967;SDS011;9221;42.646;23.380;2022-09-28T08:23:29;11.13;;;3.43;;
3967;SDS011;9221;42.646;23.380;2022-09-28T08:25:54;19.33;;;3.90;;
3967;SDS011;9221;42.646;23.380;2022-09-28T08:28:20;16.07;;;4.33;;
3967;SDS011;9221;42.646;23.380;2022-09-28T08:30:47;6.80;;;3.57;;
3967;SDS011;9221;42.646;23.380;2022-09-28T08:33:14;11.57;;;3.50;;
3967;SDS011;9221;42.646;23.380;2022-09-28T08:35:42;6.87;;;3.20;;
3967;SDS011;9221;42.646;23.380;2022-09-28T08:38:08;6.50;;;2.30;;
3967;SDS011;9221;42.646;23.380;2022-09-28T08:46:37;6.67;;;2.70;;
3967;SDS011;9221;42.646;23.380;2022-09-28T08:49:28;5.47;;;2.73;;
3967;SDS011;9221;42.646;23.380;2022-09-28T08:54:38;17.07;;;3.57;;
3967;SDS011;9221;42.646;23.380;2022-09-28T08:59:54;5.90;;;2.33;;
3967;SDS011;9221;42.646;23.380;2022-09-28T09:02:26;2.43;;;1.87;;
3967;SDS011;9221;42.646;23.380;2022-09-28T09:04:58;12.67;;;2.40;;
3967;SDS011;9221;42.646;23.380;2022-09-28T09:16:10;9.53;;;2.00;;
3967;SDS011;9221;42.646;23.380;2022-09-28T09:21:14;7.43;;;2.13;;
3967;SDS011;9221;42.646;23.380;2022-09-28T09:23:52;13.63;;;2.37;;
3967;SDS011;9221;42.646;23.380;2022-09-28T09:26:20;10.57;;;2.40;;
3967;SDS011;9221;42.646;23.380;2022-09-28T09:29:02;4.60;;;1.70;;
3967;SDS011;9221;42.646;23.380;2022-09-28T09:48:17;4.70;;;1.60;;
3967;SDS011;9221;42.646;23.380;2022-09-28T09:50:53;14.53;;;2.23;;
3967;SDS011;9221;42.646;23.380;2022-09-28T09:53:23;11.00;;;1.50;;
3967;SDS011;9221;42.646;23.380;2022-09-28T09:55:55;6.73;;;1.50;;
3967;SDS011;9221;42.646;23.380;2022-09-28T10:01:13;5.03;;;1.30;;
3967;SDS011;9221;42.646;23.380;2022-09-28T10:03:44;7.17;;;1.57;;
3967;SDS011;9221;42.646;23.380;2022-09-28T10:06:20;14.33;;;1.83;;
3967;SDS011;9221;42.646;23.380;2022-09-28T10:09:12;3.70;;;1.13;;
3967;SDS011;9221;42.646;23.380;2022-09-28T10:11:44;3.50;;;1.50;;
3967;SDS011;9221;42.646;23.380;2022-09-28T10:14:17;3.43;;;1.60;;
3967;SDS011;9221;42.646;23.380;2022-09-28T10:16:46;13.20;;;2.03;;
3967;SDS011;9221;42.646;23.380;2022-09-28T10:19:13;1.27;;;1.07;;
3967;SDS011;9221;42.646;23.380;2022-09-28T10:21:41;4.30;;;1.30;;
3967;SDS011;9221;42.646;23.380;2022-09-28T10:24:12;5.60;;;1.40;;
3967;SDS011;9221;42.646;23.380;2022-09-28T10:26:43;3.33;;;1.47;;
3967;SDS011;9221;42.646;23.380;2022-09-28T10:29:16;6.17;;;1.27;;
3967;SDS011;9221;42.646;23.380;2022-09-28T10:31:46;2.53;;;1.00;;
3967;SDS011;9221;42.646;23.380;2022-09-28T10:34:16;3.63;;;1.13;;
3967;SDS011;9221;42.646;23.380;2022-09-28T10:39:26;3.57;;;1.37;;
3967;SDS011;9221;42.646;23.380;2022-09-28T10:41:55;4.40;;;1.07;;
3967;SDS011;9221;42.646;23.380;2022-09-28T10:44:23;2.70;;;1.20;;
3967;SDS011;9221;42.646;23.380;2022-09-28T10:46:57;5.90;;;1.40;;
3967;SDS011;9221;42.646;23.380;2022-09-28T10:49:25;5.40;;;1.40;;
3967;SDS011;9221;42.646;23.380;2022-09-28T10:51:52;3.60;;;1.10;;
3967;SDS011;9221;42.646;23.380;2022-09-28T10:54:21;7.10;;;1.20;;
3967;SDS011;9221;42.646;23.380;2022-09-28T10:56:51;3.10;;;1.13;;
3967;SDS011;9221;42.646;23.380;2022-09-28T11:02:03;8.97;;;1.20;;
3967;SDS011;9221;42.646;23.380;2022-09-28T11:04:42;2.87;;;1.07;;
3967;SDS011;9221;42.646;23.380;2022-09-28T11:07:16;7.10;;;1.00;;
3967;SDS011;9221;42.646;23.380;2022-09-28T11:09:45;6.90;;;1.07;;
3967;SDS011;9221;42.646;23.380;2022-09-28T11:12:17;3.67;;;1.37;;
3967;SDS011;9221;42.646;23.380;2022-09-28T11:14:44;3.63;;;0.80;;
3967;SDS011;9221;42.646;23.380;2022-09-28T11:19:50;4.50;;;1.00;;
3967;SDS011;9221;42.646;23.380;2022-09-28T11:45:45;11.73;;;1.10;;
3967;SDS011;9221;42.646;23.380;2022-09-28T11:51:23;3.57;;;1.23;;
3967;SDS011;9221;42.646;23.380;2022-09-28T11:56:47;4.97;;;1.10;;
3967;SDS011;9221;42.646;23.380;2022-09-28T12:01:52;8.10;;;1.80;;
3967;SDS011;9221;42.646;23.380;2022-09-28T12:07:11;3.33;;;1.00;;
3967;SDS011;9221;42.646;23.380;2022-09-28T12:09:49;4.43;;;1.00;;
3967;SDS011;9221;42.646;23.380;2022-09-28T12:12:24;3.53;;;0.80;;
3967;SDS011;9221;42.646;23.380;2022-09-28T12:14:58;1.50;;;0.80;;
3967;SDS011;9221;42.646;23.380;2022-09-28T12:17:31;7.30;;;1.30;;
3967;SDS011;9221;42.646;23.380;2022-09-28T12:20:17;3.27;;;1.07;;
3967;SDS011;9221;42.646;23.380;2022-09-28T12:22:50;8.47;;;0.90;;
3967;SDS011;9221;42.646;23.380;2022-09-28T12:25:19;3.60;;;1.17;;
3967;SDS011;9221;42.646;23.380;2022-09-28T12:27:51;3.43;;;1.03;;
3967;SDS011;9221;42.646;23.380;2022-09-28T12:30:22;6.30;;;1.37;;
3967;SDS011;9221;42.646;23.380;2022-09-28T12:32:51;2.07;;;1.30;;
3967;SDS011;9221;42.646;23.380;2022-09-28T12:35:35;2.80;;;1.30;;
3967;SDS011;9221;42.646;23.380;2022-09-28T12:40:56;2.83;;;1.00;;
3967;SDS011;9221;42.646;23.380;2022-09-28T12:46:20;5.53;;;1.10;;
3967;SDS011;9221;42.646;23.380;2022-09-28T13:07:55;8.20;;;1.47;;
3967;SDS011;9221;42.646;23.380;2022-09-28T13:21:04;3.10;;;1.40;;
3967;SDS011;9221;42.646;23.380;2022-09-28T13:23:33;2.50;;;1.10;;
3967;SDS011;9221;42.646;23.380;2022-09-28T13:29:09;6.40;;;1.10;;
3967;SDS011;9221;42.646;23.380;2022-09-28T13:31:41;10.63;;;1.00;;
3967;SDS011;9221;42.646;23.380;2022-09-28T13:34:14;3.67;;;1.30;;
3967;SDS011;9221;42.646;23.380;2022-09-28T13:39:47;7.50;;;1.77;;
3967;SDS011;9221;42.646;23.380;2022-09-28T13:42:39;1.40;;;1.10;;
3967;SDS011;9221;42.646;23.380;2022-09-28T13:56:21;7.30;;;1.60;;
3967;SDS011;9221;42.646;23.380;2022-09-28T13:58:56;3.73;;;1.50;;
3967;SDS011;9221;42.646;23.380;2022-09-28T14:01:29;5.37;;;1.27;;
3967;SDS011;9221;42.646;23.380;2022-09-28T14:06:50;6.87;;;1.50;;
3967;SDS011;9221;42.646;23.380;2022-09-28T14:15:00;7.33;;;2.17;;
3967;SDS011;9221;42.646;23.380;2022-09-28T14:20:08;3.53;;;1.40;;
3967;SDS011;9221;42.646;23.380;2022-09-28T14:25:25;2.27;;;1.50;;
3967;SDS011;9221;42.646;23.380;2022-09-28T14:28:01;3.40;;;1.40;;
3967;SDS011;9221;42.646;23.380;2022-09-28T14:30:52;8.17;;;1.27;;
3967;SDS011;9221;42.646;23.380;2022-09-28T14:35:48;5.60;;;1.10;;
3967;SDS011;9221;42.646;23.380;2022-09-28T14:38:22;4.07;;;1.10;;
3967;SDS011;9221;42.646;23.380;2022-09-28T14:41:35;7.63;;;1.40;;
3967;SDS011;9221;42.646;23.380;2022-09-28T14:46:46;8.17;;;1.00;;
3967;SDS011;9221;42.646;23.380;2022-09-28T14:56:42;4.60;;;1.30;;
3967;SDS011;9221;42.646;23.380;2022-09-28T14:59:15;4.63;;;1.40;;
3967;SDS011;9221;42.646;23.380;2022-09-28T15:01:49;5.83;;;2.27;;
3967;SDS011;9221;42.646;23.380;2022-09-28T15:04:18;5.43;;;0.80;;
3967;SDS011;9221;42.646;23.380;2022-09-28T15:06:48;1.50;;;0.90;;
3967;SDS011;9221;42.646;23.380;2022-09-28T15:14:41;5.53;;;1.10;;
3967;SDS011;9221;42.646;23.380;2022-09-28T15:17:10;4.73;;;2.07;;
3967;SDS011;9221;42.646;23.380;2022-09-28T15:22:16;2.40;;;1.73;;
3967;SDS011;9221;42.646;23.380;2022-09-28T15:24:44;2.40;;;1.10;;
3967;SDS011;9221;42.646;23.380;2022-09-28T15:27:19;12.77;;;1.80;;
3967;SDS011;9221;42.646;23.380;2022-09-28T15:29:57;6.77;;;1.00;;
3967;SDS011;9221;42.646;23.380;2022-09-28T15:32:27;2.07;;;1.00;;
3967;SDS011;9221;42.646;23.380;2022-09-28T15:34:55;2.20;;;1.00;;
3967;SDS011;9221;42.646;23.380;2022-09-28T15:37:33;4.07;;;1.10;;
3967;SDS011;9221;42.646;23.380;2022-09-28T15:40:00;5.10;;;0.97;;
3967;SDS011;9221;42.646;23.380;2022-09-28T15:42:27;1.70;;;0.90;;
3967;SDS011;9221;42.646;23.380;2022-09-28T15:47:30;4.67;;;0.83;;
3967;SDS011;9221;42.646;23.380;2022-09-28T15:55:02;3.33;;;1.00;;
3967;SDS011;9221;42.646;23.380;2022-09-28T15:57:36;3.63;;;1.07;;
3967;SDS011;9221;42.646;23.380;2022-09-28T16:00:05;2.10;;;1.10;;
3967;SDS011;9221;42.646;23.380;2022-09-28T16:08:00;5.27;;;0.93;;
3967;SDS011;9221;42.646;23.380;2022-09-28T16:10:28;2.90;;;0.83;;
3967;SDS011;9221;42.646;23.380;2022-09-28T16:12:58;2.60;;;0.77;;
3967;SDS011;9221;42.646;23.380;2022-09-28T16:15:34;1.40;;;0.70;;
3967;SDS011;9221;42.646;23.380;2022-09-28T16:18:03;2.60;;;0.80;;
3967;SDS011;9221;42.646;23.380;2022-09-28T16:20:46;2.97;;;0.87;;
3967;SDS011;9221;42.646;23.380;2022-09-28T16:25:42;5.63;;;1.10;;
3967;SDS011;9221;42.646;23.380;2022-09-28T16:28:23;1.70;;;0.80;;
3967;SDS011;9221;42.646;23.380;2022-09-28T16:33:30;1.73;;;0.80;;
3967;SDS011;9221;42.646;23.380;2022-09-28T16:36:03;2.20;;;0.70;;
3967;SDS011;9221;42.646;23.380;2022-09-28T16:38:36;0.63;;;0.50;;
3967;SDS011;9221;42.646;23.380;2022-09-28T16:41:02;2.50;;;0.73;;
3967;SDS011;9221;42.646;23.380;2022-09-28T16:43:29;4.23;;;0.90;;
3967;SDS011;9221;42.646;23.380;2022-09-28T16:45:59;6.63;;;0.90;;
3967;SDS011;9221;42.646;23.380;2022-09-28T16:48:38;4.93;;;1.23;;
3967;SDS011;9221;42.646;23.380;2022-09-28T16:51:09;9.60;;;1.07;;
3967;SDS011;9221;42.646;23.380;2022-09-28T16:53:35;4.43;;;0.83;;
3967;SDS011;9221;42.646;23.380;2022-09-28T16:56:19;6.33;;;1.20;;
3967;SDS011;9221;42.646;23.380;2022-09-28T16:58:44;2.30;;;1.27;;
3967;SDS011;9221;42.646;23.380;2022-09-28T17:01:13;3.27;;;1.27;;
3967;SDS011;9221;42.646;23.380;2022-09-28T17:03:39;3.17;;;1.43;;
3967;SDS011;9221;42.646;23.380;2022-09-28T17:06:10;1.80;;;1.00;;
3967;SDS011;9221;42.646;23.380;2022-09-28T17:08:36;8.33;;;1.17;;
3967;SDS011;9221;42.646;23.380;2022-09-28T17:11:02;1.00;;;0.67;;
3967;SDS011;9221;42.646;23.380;2022-09-28T17:13:30;6.83;;;1.13;;
3967;SDS011;9221;42.646;23.380;2022-09-28T17:16:00;2.60;;;0.70;;
3967;SDS011;9221;42.646;23.380;2022-09-28T17:18:30;1.50;;;0.50;;
3967;SDS011;9221;42.646;23.380;2022-09-28T17:20:56;1.60;;;0.67;;
3967;SDS011;9221;42.646;23.380;2022-09-28T17:23:24;0.80;;;0.50;;
3967;SDS011;9221;42.646;23.380;2022-09-28T17:25:50;1.37;;;0.70;;
3967;SDS011;9221;42.646;23.380;2022-09-28T17:30:46;1.63;;;0.80;;
3967;SDS011;9221;42.646;23.380;2022-09-28T17:33:12;6.03;;;0.70;;
3967;SDS011;9221;42.646;23.380;2022-09-28T17:35:38;2.40;;;0.70;;
3967;SDS011;9221;42.646;23.380;2022-09-28T17:38:04;7.90;;;0.90;;
3967;SDS011;9221;42.646;23.380;2022-09-28T17:40:30;1.60;;;0.80;;
3967;SDS011;9221;42.646;23.380;2022-09-28T17:42:56;6.03;;;0.90;;
3967;SDS011;9221;42.646;23.380;2022-09-28T17:45:23;1.47;;;0.77;;
3967;SDS011;9221;42.646;23.380;2022-09-28T17:47:53;3.53;;;1.00;;
3967;SDS011;9221;42.646;23.380;2022-09-28T17:50:21;2.70;;;0.80;;
3967;SDS011;9221;42.646;23.380;2022-09-28T17:52:52;2.10;;;0.80;;
3967;SDS011;9221;42.646;23.380;2022-09-28T17:55:19;1.07;;;0.73;;
3967;SDS011;9221;42.646;23.380;2022-09-28T17:57:49;3.60;;;0.97;;
3967;SDS011;9221;42.646;23.380;2022-09-28T18:00:15;8.33;;;0.90;;
3967;SDS011;9221;42.646;23.380;2022-09-28T18:02:41;5.70;;;0.80;;
3967;SDS011;9221;42.646;23.380;2022-09-28T18:05:08;2.50;;;0.80;;
3967;SDS011;9221;42.646;23.380;2022-09-28T18:07:39;2.40;;;0.83;;
3967;SDS011;9221;42.646;23.380;2022-09-28T18:10:15;1.20;;;0.70;;
3967;SDS011;9221;42.646;23.380;2022-09-28T18:12:43;0.90;;;0.70;;
3967;SDS011;9221;42.646;23.380;2022-09-28T18:15:10;2.57;;;0.90;;
3967;SDS011;9221;42.646;23.380;2022-09-28T18:17:36;1.13;;;0.60;;
3967;SDS011;9221;42.646;23.380;2022-09-28T18:20:02;1.80;;;1.07;;
3967;SDS011;9221;42.646;23.380;2022-09-28T18:22:29;2.40;;;1.17;;
3967;SDS011;9221;42.646;23.380;2022-09-28T18:24:54;2.87;;;1.20;;
3967;SDS011;9221;42.646;23.380;2022-09-28T18:27:20;9.37;;;1.57;;
3967;SDS011;9221;42.646;23.380;2022-09-28T18:29:45;4.10;;;1.60;;
3967;SDS011;9221;42.646;23.380;2022-09-28T18:32:10;3.07;;;1.20;;
3967;SDS011;9221;42.646;23.380;2022-09-28T18:34:36;3.80;;;1.90;;
3967;SDS011;9221;42.646;23.380;2022-09-28T18:37:02;5.73;;;1.50;;
3967;SDS011;9221;42.646;23.380;2022-09-28T18:39:28;2.93;;;1.27;;
3967;SDS011;9221;42.646;23.380;2022-09-28T18:41:54;5.80;;;1.40;;
3967;SDS011;9221;42.646;23.380;2022-09-28T18:44:20;10.90;;;2.50;;
3967;SDS011;9221;42.646;23.380;2022-09-28T18:46:45;7.73;;;2.70;;
3967;SDS011;9221;42.646;23.380;2022-09-28T18:49:11;4.93;;;2.43;;
3967;SDS011;9221;42.646;23.380;2022-09-28T18:51:36;11.87;;;2.60;;
3967;SDS011;9221;42.646;23.380;2022-09-28T18:54:01;11.40;;;3.40;;
3967;SDS011;9221;42.646;23.380;2022-09-28T18:56:32;12.20;;;2.73;;
3967;SDS011;9221;42.646;23.380;2022-09-28T18:58:58;5.57;;;3.10;;
3967;SDS011;9221;42.646;23.380;2022-09-28T19:01:24;5.73;;;2.47;;
3967;SDS011;9221;42.646;23.380;2022-09-28T19:03:50;11.57;;;2.80;;
3967;SDS011;9221;42.646;23.380;2022-09-28T19:06:17;8.60;;;3.20;;